Time;durP1;ratioP1;P1;durP2;ratioP2;P2;SDS_P1;SDS_P2;PMS_P1;PMS_P2;Temp;Humidity;BMP_temperature;BMP_pressure;BME280_temperature;BME280_humidity;BME280_pressure;Samples;Min_cycle;Max_cycle;Signal;HPM_P1;HPM_P2
2022/11/10 00:00:51;;;;;;;9.70;2.60;;;12.00;99.90;;;;;;5011382;28;20268;-83
2022/11/10 00:03:18;;;;;;;7.17;2.40;;;12.00;99.90;;;;;;5013108;28;20228;-83
2022/11/10 00:05:45;;;;;;;7.43;2.73;;;12.00;99.90;;;;;;5012225;28;20215;-83
2022/11/10 00:08:12;;;;;;;7.90;2.43;;;11.90;99.90;;;;;;5011839;28;20276;-83
2022/11/10 00:11:00;;;;;;;5.33;2.37;;;11.90;99.90;;;;;;5015512;28;20228;-83
2022/11/10 00:13:31;;;;;;;8.47;2.77;;;11.90;99.90;;;;;;4996201;28;20253;-83
2022/11/10 00:18:43;;;;;;;6.87;2.70;;;11.70;99.90;;;;;;5000870;28;20248;-83
2022/11/10 00:21:12;;;;;;;12.47;2.93;;;11.60;99.90;;;;;;5015555;28;20268;-83
2022/11/10 00:23:39;;;;;;;6.63;2.60;;;11.50;99.90;;;;;;5014765;28;20264;-83
2022/11/10 00:26:12;;;;;;;7.37;2.50;;;11.40;99.90;;;;;;5015494;28;20272;-83
2022/11/10 00:28:40;;;;;;;9.03;2.77;;;11.40;99.90;;;;;;4996601;28;20189;-83
2022/11/10 00:31:08;;;;;;;8.90;2.90;;;11.30;99.90;;;;;;4996262;28;20237;-83
2022/11/10 00:33:36;;;;;;;7.37;3.00;;;11.10;99.90;;;;;;4999714;28;20280;-84
2022/11/10 00:36:03;;;;;;;11.30;3.40;;;11.10;99.90;;;;;;5016033;28;20257;-84
2022/11/10 00:38:30;;;;;;;12.77;2.90;;;11.10;99.90;;;;;;5015245;28;20272;-83
2022/11/10 00:40:58;;;;;;;11.33;4.27;;;11.20;99.90;;;;;;5015556;28;20268;-83
2022/11/10 00:43:25;;;;;;;7.57;2.40;;;11.10;99.90;;;;;;5015426;28;20277;-83
2022/11/10 00:45:53;;;;;;;9.13;2.90;;;11.20;99.90;;;;;;5015731;28;20298;-83
2022/11/10 00:48:20;;;;;;;9.20;3.00;;;11.20;99.90;;;;;;5014946;28;20285;-84
2022/11/10 00:50:47;;;;;;;6.63;3.03;;;11.10;99.90;;;;;;5015319;28;20256;-83
2022/11/10 00:53:14;;;;;;;11.03;3.33;;;11.30;99.90;;;;;;5015554;28;20268;-83
2022/11/10 00:55:41;;;;;;;10.03;3.40;;;11.20;99.90;;;;;;5014978;28;20264;-83
2022/11/10 00:58:08;;;;;;;10.57;4.33;;;11.20;99.90;;;;;;5015292;28;20292;-83
2022/11/10 01:00:35;;;;;;;7.47;3.40;;;11.20;99.90;;;;;;5014864;28;20197;-83
2022/11/10 01:03:03;;;;;;;7.63;3.53;;;11.10;99.90;;;;;;5014690;28;20215;-83
2022/11/10 01:05:30;;;;;;;13.70;4.10;;;11.00;99.90;;;;;;5015315;28;20252;-83
2022/11/10 01:07:58;;;;;;;17.00;4.37;;;11.00;99.90;;;;;;5015702;28;20260;-84
2022/11/10 01:10:25;;;;;;;9.80;3.90;;;11.00;99.90;;;;;;5014537;28;20205;-83
2022/11/10 01:12:52;;;;;;;13.20;3.80;;;10.90;99.90;;;;;;5014983;28;20273;-83
2022/11/10 01:15:19;;;;;;;9.27;3.77;;;10.90;99.90;;;;;;5014335;28;20265;-83
2022/11/10 01:17:46;;;;;;;7.73;3.40;;;10.90;99.90;;;;;;5014391;28;20221;-83
2022/11/10 01:20:14;;;;;;;8.33;3.50;;;10.80;99.90;;;;;;5013592;28;20252;-83
2022/11/10 01:22:41;;;;;;;9.63;4.53;;;10.80;99.90;;;;;;5014662;28;20293;-83
2022/11/10 01:25:09;;;;;;;11.70;4.13;;;10.80;99.90;;;;;;5014489;28;20196;-83
2022/11/10 01:27:35;;;;;;;8.87;4.30;;;10.80;99.90;;;;;;5004425;28;20281;-83
2022/11/10 01:30:03;;;;;;;8.83;3.80;;;10.80;99.90;;;;;;5012771;28;20227;-83
2022/11/10 01:32:29;;;;;;;8.50;4.47;;;10.70;99.90;;;;;;5012327;28;20257;-83
2022/11/10 01:34:56;;;;;;;11.70;4.37;;;10.70;99.90;;;;;;5010949;28;20207;-83
2022/11/10 01:37:25;;;;;;;9.40;3.77;;;10.70;99.90;;;;;;5002320;28;20221;-83
2022/11/10 01:39:51;;;;;;;5.80;4.07;;;10.70;99.90;;;;;;5009296;28;20225;-83
2022/11/10 01:42:24;;;;;;;11.43;4.03;;;10.60;99.90;;;;;;5013906;28;20224;-83
2022/11/10 01:45:28;;;;;;;10.40;3.90;;;10.60;99.90;;;;;;5012259;28;20249;-83
2022/11/10 01:47:57;;;;;;;11.57;4.47;;;10.50;99.90;;;;;;5007527;28;20273;-84
2022/11/10 01:50:28;;;;;;;13.10;4.27;;;10.60;99.90;;;;;;5012247;28;20256;-84
2022/11/10 01:53:00;;;;;;;14.17;5.17;;;10.60;99.90;;;;;;5012782;28;20299;-84
2022/11/10 01:55:27;;;;;;;7.47;4.40;;;10.60;99.90;;;;;;5013114;28;20268;-84
2022/11/10 01:57:55;;;;;;;10.93;5.03;;;10.70;99.90;;;;;;5014329;28;20289;-83
2022/11/10 02:00:23;;;;;;;10.80;4.33;;;10.50;99.90;;;;;;5012877;28;20269;-84
2022/11/10 02:02:54;;;;;;;12.10;5.17;;;10.60;99.90;;;;;;5013954;28;20224;-84
2022/11/10 02:05:22;;;;;;;8.97;4.60;;;10.70;99.90;;;;;;5013703;28;20288;-84
2022/11/10 02:07:50;;;;;;;10.53;4.60;;;10.60;99.90;;;;;;5014440;28;20288;-83
2022/11/10 02:10:20;;;;;;;12.10;5.37;;;10.60;99.90;;;;;;5013510;28;20268;-83
2022/11/10 02:12:48;;;;;;;11.47;5.67;;;10.60;99.90;;;;;;5012174;28;20275;-84
2022/11/10 02:15:17;;;;;;;9.57;5.03;;;10.60;99.90;;;;;;5012118;28;20264;-83
2022/11/10 02:17:46;;;;;;;11.50;5.47;;;10.50;99.90;;;;;;5014056;28;20316;-83
2022/11/10 02:20:15;;;;;;;11.77;6.03;;;10.40;99.90;;;;;;5013334;28;20264;-84
2022/11/10 02:22:43;;;;;;;12.50;5.33;;;10.50;99.90;;;;;;5004211;28;20244;-83
2022/11/10 02:25:13;;;;;;;9.20;5.00;;;10.40;99.90;;;;;;5013876;28;20249;-83
2022/11/10 02:27:40;;;;;;;10.40;5.37;;;10.40;99.90;;;;;;5013224;28;20285;-84
2022/11/10 02:30:08;;;;;;;13.37;5.47;;;10.30;99.90;;;;;;5013608;28;20189;-84
2022/11/10 02:32:35;;;;;;;9.00;5.93;;;10.40;99.90;;;;;;5013695;28;20265;-84
2022/11/10 02:35:02;;;;;;;12.70;5.70;;;10.40;99.90;;;;;;5012513;28;20689;-84
2022/11/10 02:37:29;;;;;;;12.90;5.87;;;10.50;99.90;;;;;;5013308;28;20288;-83
2022/11/10 02:39:57;;;;;;;10.20;5.90;;;10.30;99.90;;;;;;5012995;28;20213;-84
2022/11/10 02:42:24;;;;;;;13.27;6.30;;;10.40;99.90;;;;;;5013603;28;20264;-84
2022/11/10 02:44:51;;;;;;;9.20;5.50;;;10.40;99.90;;;;;;5011604;28;20248;-84
2022/11/10 02:47:18;;;;;;;12.03;5.83;;;10.30;99.90;;;;;;5012042;28;20301;-84
2022/11/10 02:49:44;;;;;;;10.00;5.63;;;10.10;99.90;;;;;;5012187;28;20256;-84
2022/11/10 02:52:11;;;;;;;15.20;6.47;;;10.10;99.90;;;;;;5012624;28;20197;-84
2022/11/10 02:54:38;;;;;;;11.20;6.70;;;10.20;99.90;;;;;;5013803;28;20256;-84
2022/11/10 02:57:06;;;;;;;11.93;6.83;;;10.20;99.90;;;;;;5009924;28;20220;-84
2022/11/10 02:59:33;;;;;;;13.27;7.00;;;10.20;99.90;;;;;;5011417;28;20284;-84
2022/11/10 03:02:00;;;;;;;12.17;7.10;;;10.10;99.90;;;;;;5011502;28;20289;-83
2022/11/10 03:04:26;;;;;;;14.43;6.57;;;10.10;99.90;;;;;;5012544;28;20264;-84
2022/11/10 03:06:53;;;;;;;13.93;7.13;;;10.10;99.90;;;;;;5011159;28;20243;-84
2022/11/10 03:09:20;;;;;;;13.70;7.10;;;10.10;99.90;;;;;;5013002;28;20264;-84
2022/11/10 03:11:47;;;;;;;16.23;8.17;;;10.20;99.90;;;;;;5003140;28;20265;-84
2022/11/10 03:14:15;;;;;;;14.90;7.60;;;10.20;99.90;;;;;;5002069;28;20224;-84
2022/11/10 03:16:41;;;;;;;12.43;7.40;;;10.10;99.90;;;;;;5006256;28;20256;-84
2022/11/10 03:19:08;;;;;;;15.57;7.67;;;10.10;99.90;;;;;;4999222;28;20277;-83
2022/11/10 03:21:35;;;;;;;11.73;7.20;;;10.10;99.90;;;;;;5001954;28;20285;-84
2022/11/10 03:24:02;;;;;;;12.33;7.27;;;10.00;99.90;;;;;;5012561;28;20216;-83
2022/11/10 03:26:29;;;;;;;13.53;7.90;;;10.00;99.90;;;;;;5010690;28;20304;-83
2022/11/10 03:28:56;;;;;;;15.13;7.87;;;10.10;99.90;;;;;;5012038;28;20748;-84
2022/11/10 03:31:24;;;;;;;12.73;7.73;;;10.10;99.90;;;;;;5012845;28;20681;-83
2022/11/10 03:33:50;;;;;;;20.87;9.03;;;10.00;99.90;;;;;;5012337;28;20224;-83
2022/11/10 03:36:17;;;;;;;17.60;7.60;;;10.00;99.90;;;;;;5012748;28;20265;-83
2022/11/10 03:38:44;;;;;;;15.40;7.70;;;10.00;99.90;;;;;;5011023;28;20281;-83
2022/11/10 03:41:11;;;;;;;12.10;7.73;;;10.30;99.90;;;;;;5011690;28;20260;-83
2022/11/10 03:43:38;;;;;;;14.67;8.00;;;10.20;99.90;;;;;;5014310;28;20236;-81
2022/11/10 03:46:04;;;;;;;19.20;7.93;;;10.30;99.90;;;;;;5016416;28;20277;-82
2022/11/10 03:48:33;;;;;;;16.23;8.47;;;10.20;99.90;;;;;;5014584;28;20232;-83
2022/11/10 03:50:59;;;;;;;19.60;10.20;;;10.30;99.90;;;;;;5015820;28;20265;-83
2022/11/10 03:53:26;;;;;;;23.53;10.37;;;10.30;99.90;;;;;;5016910;28;20264;-82
2022/11/10 03:55:53;;;;;;;15.07;8.57;;;10.40;99.90;;;;;;5015873;28;20303;-83
2022/11/10 03:58:20;;;;;;;20.73;9.30;;;10.30;99.90;;;;;;5015745;28;20235;-84
2022/11/10 04:00:47;;;;;;;15.10;8.83;;;10.40;99.90;;;;;;5015374;28;20291;-82
2022/11/10 04:03:14;;;;;;;13.70;9.03;;;10.40;99.90;;;;;;5015348;28;20209;-82
2022/11/10 04:11:11;;;;;;;14.07;9.23;;;10.20;99.90;;;;;;5006182;28;20220;-82
2022/11/10 04:16:22;;;;;;;17.67;8.33;;;10.30;99.90;;;;;;5006771;28;20267;-84
2022/11/10 04:18:49;;;;;;;16.20;8.53;;;10.40;99.90;;;;;;5012602;28;20225;-84
2022/11/10 04:21:17;;;;;;;16.33;8.63;;;10.20;99.90;;;;;;5011514;28;20300;-84
2022/11/10 04:23:44;;;;;;;17.70;8.77;;;10.20;99.90;;;;;;5011879;28;20268;-85
2022/11/10 04:26:32;;;;;;;13.83;8.37;;;10.30;99.90;;;;;;5012727;28;20205;-86
2022/11/10 04:29:00;;;;;;;22.57;9.47;;;10.40;99.90;;;;;;5011166;28;20277;-85
2022/11/10 04:31:29;;;;;;;15.10;8.70;;;10.30;99.90;;;;;;5010660;28;20287;-86
2022/11/10 04:33:56;;;;;;;20.73;8.27;;;10.30;99.90;;;;;;5011708;28;20268;-85
2022/11/10 04:36:26;;;;;;;14.77;8.67;;;10.40;99.90;;;;;;5010593;28;20209;-85
2022/11/10 04:38:54;;;;;;;19.60;8.77;;;10.40;99.90;;;;;;5009875;28;20231;-85
2022/11/10 04:41:21;;;;;;;19.63;8.73;;;10.40;99.90;;;;;;5009979;28;20212;-86
2022/11/10 04:43:48;;;;;;;17.83;8.83;;;10.40;99.90;;;;;;5010333;28;20296;-85
2022/11/10 04:46:22;;;;;;;17.57;8.87;;;10.30;99.90;;;;;;5010442;28;20196;-85
2022/11/10 04:48:49;;;;;;;15.23;8.70;;;10.30;99.90;;;;;;5010130;28;20265;-85
2022/11/10 04:51:16;;;;;;;15.77;9.50;;;10.30;99.90;;;;;;5011013;28;20259;-85
2022/11/10 04:53:45;;;;;;;19.17;8.30;;;10.30;99.90;;;;;;5009450;28;20213;-85
2022/11/10 04:56:14;;;;;;;17.20;8.93;;;10.20;99.90;;;;;;5009361;28;20209;-85
2022/11/10 04:58:41;;;;;;;17.03;8.87;;;10.20;99.90;;;;;;5008634;28;20221;-85
2022/11/10 05:01:11;;;;;;;19.03;9.63;;;10.30;99.90;;;;;;5009636;28;20213;-85
2022/11/10 05:03:38;;;;;;;14.07;8.73;;;10.30;99.90;;;;;;5010973;28;20201;-85
2022/11/10 05:06:05;;;;;;;18.57;8.97;;;10.40;99.90;;;;;;5009186;28;20200;-85
2022/11/10 05:08:32;;;;;;;15.10;8.27;;;10.30;99.90;;;;;;5007263;28;20207;-85
2022/11/10 05:11:00;;;;;;;19.47;9.30;;;10.30;99.90;;;;;;5007479;28;20610;-85
2022/11/10 05:13:27;;;;;;;18.53;8.97;;;10.40;99.90;;;;;;5008529;28;20205;-85
2022/11/10 05:15:54;;;;;;;16.17;8.67;;;10.40;99.90;;;;;;5008380;28;20215;-85
2022/11/10 05:18:21;;;;;;;18.33;8.90;;;10.50;99.90;;;;;;5007354;28;20292;-86
2022/11/10 05:20:48;;;;;;;19.87;8.70;;;10.50;99.90;;;;;;5008219;28;20213;-85
2022/11/10 05:26:01;;;;;;;19.70;9.10;;;10.60;99.90;;;;;;5007560;28;20292;-85
2022/11/10 05:28:27;;;;;;;16.10;8.77;;;10.60;99.90;;;;;;4994700;28;20221;-85
2022/11/10 05:30:54;;;;;;;19.23;8.73;;;10.60;99.90;;;;;;5005916;28;20284;-85
2022/11/10 05:33:21;;;;;;;15.60;8.13;;;10.50;99.90;;;;;;5008211;28;20292;-86
2022/11/10 05:35:49;;;;;;;20.13;9.60;;;10.50;99.90;;;;;;5006179;28;20661;-85
2022/11/10 05:38:16;;;;;;;17.47;9.17;;;10.60;99.90;;;;;;5006525;28;20296;-85
2022/11/10 05:40:43;;;;;;;15.10;8.97;;;10.50;99.90;;;;;;5008016;28;20231;-85
2022/11/10 05:43:11;;;;;;;17.33;8.57;;;10.50;99.90;;;;;;5009049;28;20205;-85
2022/11/10 05:45:38;;;;;;;22.17;9.43;;;10.70;99.90;;;;;;5006933;28;20268;-85
2022/11/10 05:48:05;;;;;;;20.67;8.87;;;10.70;99.90;;;;;;5007989;28;20224;-85
2022/11/10 05:50:32;;;;;;;21.23;8.63;;;10.70;99.90;;;;;;5008934;28;20260;-85
2022/11/10 05:52:59;;;;;;;18.53;9.20;;;10.80;99.90;;;;;;5007853;28;20219;-85
2022/11/10 05:55:27;;;;;;;20.53;8.17;;;10.90;99.90;;;;;;5008879;28;20209;-86
2022/11/10 05:57:56;;;;;;;11.27;7.77;;;10.80;99.90;;;;;;5008318;28;20288;-85
2022/11/10 06:00:27;;;;;;;19.00;9.23;;;10.90;99.90;;;;;;5007528;28;20312;-85
2022/11/10 06:02:58;;;;;;;17.33;9.17;;;10.90;99.90;;;;;;5008624;28;20243;-85
2022/11/10 06:05:25;;;;;;;16.27;8.67;;;10.90;99.90;;;;;;5008707;28;20205;-85
2022/11/10 06:07:52;;;;;;;17.17;8.40;;;10.90;99.90;;;;;;5008270;28;20312;-85
2022/11/10 06:10:19;;;;;;;14.40;7.90;;;10.90;99.90;;;;;;5008523;28;20326;-85
2022/11/10 06:12:46;;;;;;;15.93;7.73;;;11.00;99.90;;;;;;5006988;28;20714;-86
2022/11/10 06:15:14;;;;;;;15.67;9.00;;;10.90;99.90;;;;;;5007578;28;20197;-85
2022/11/10 06:17:42;;;;;;;13.90;8.17;;;10.90;99.90;;;;;;5007107;28;20671;-85
2022/11/10 06:20:10;;;;;;;18.33;8.57;;;10.90;99.90;;;;;;5005656;28;20704;-86
2022/11/10 06:22:37;;;;;;;20.10;7.30;;;10.90;99.90;;;;;;5006181;28;20299;-85
2022/11/10 06:25:04;;;;;;;15.37;9.10;;;10.90;99.90;;;;;;5006026;28;20205;-85
2022/11/10 06:27:31;;;;;;;19.20;7.57;;;10.80;99.90;;;;;;5005299;28;20229;-85
2022/11/10 06:29:58;;;;;;;14.20;7.80;;;10.80;99.90;;;;;;5005782;28;20289;-85
2022/11/10 06:32:25;;;;;;;14.53;7.20;;;10.90;99.90;;;;;;5004259;28;20205;-86
2022/11/10 06:34:53;;;;;;;12.00;7.07;;;10.90;99.90;;;;;;5008017;28;20205;-85
2022/11/10 06:37:20;;;;;;;19.53;7.23;;;10.90;99.90;;;;;;5005906;28;20229;-85
2022/11/10 06:39:47;;;;;;;14.00;8.60;;;10.90;99.90;;;;;;5007078;28;20283;-85
2022/11/10 06:42:13;;;;;;;15.77;8.63;;;10.90;99.90;;;;;;5008774;28;20241;-85
2022/11/10 06:44:40;;;;;;;19.57;8.73;;;10.90;99.90;;;;;;5008115;28;20204;-85
2022/11/10 06:47:07;;;;;;;17.10;7.93;;;10.90;99.90;;;;;;4992809;28;20257;-85
2022/11/10 06:49:34;;;;;;;15.47;7.40;;;11.00;99.90;;;;;;4986288;28;20202;-85
2022/11/10 06:52:02;;;;;;;17.37;8.47;;;11.10;99.90;;;;;;4994847;28;20292;-85
2022/11/10 06:54:29;;;;;;;19.50;7.87;;;11.00;99.90;;;;;;5007233;28;20269;-85
2022/11/10 06:56:55;;;;;;;18.73;7.77;;;11.00;99.90;;;;;;5005360;28;20227;-85
2022/11/10 06:59:22;;;;;;;16.43;7.23;;;11.00;99.90;;;;;;5006285;28;20244;-85
2022/11/10 07:01:49;;;;;;;17.20;8.07;;;11.10;99.90;;;;;;5003918;28;20276;-85
2022/11/10 07:04:16;;;;;;;13.63;7.47;;;11.10;99.90;;;;;;5007921;28;20212;-85
2022/11/10 07:06:42;;;;;;;18.47;7.57;;;11.00;99.90;;;;;;5009009;28;20311;-85
2022/11/10 07:09:11;;;;;;;15.43;7.00;;;11.10;99.90;;;;;;5007393;28;20215;-85
2022/11/10 07:11:38;;;;;;;18.77;7.93;;;11.10;99.90;;;;;;4998666;28;20212;-85
2022/11/10 07:14:04;;;;;;;13.57;6.83;;;11.20;99.90;;;;;;4994923;28;20224;-85
2022/11/10 07:16:31;;;;;;;17.30;7.60;;;11.20;99.90;;;;;;4990243;28;20286;-85
2022/11/10 07:18:58;;;;;;;17.87;6.93;;;11.20;99.90;;;;;;4990672;28;20676;-86
2022/11/10 07:21:25;;;;;;;16.47;7.50;;;11.30;99.90;;;;;;4991175;28;20201;-85
2022/11/10 07:23:51;;;;;;;18.67;7.37;;;11.30;99.90;;;;;;5004925;28;20203;-85
2022/11/10 07:26:20;;;;;;;14.77;7.80;;;11.30;99.90;;;;;;5005886;28;20276;-86
2022/11/10 07:28:46;;;;;;;15.83;7.80;;;11.20;99.90;;;;;;5005511;28;20268;-86
2022/11/10 07:31:13;;;;;;;17.63;8.07;;;11.30;99.90;;;;;;5006728;28;20219;-85
2022/11/10 07:33:42;;;;;;;13.17;6.83;;;11.50;99.90;;;;;;5006445;28;20296;-85
2022/11/10 07:36:09;;;;;;;11.70;6.33;;;11.40;99.90;;;;;;5005588;28;20280;-85
2022/11/10 07:38:36;;;;;;;13.93;6.40;;;11.40;99.90;;;;;;5007540;28;20248;-85
2022/11/10 07:41:02;;;;;;;12.47;6.37;;;11.40;99.90;;;;;;5004617;28;20228;-85
2022/11/10 07:43:30;;;;;;;17.13;7.20;;;11.40;99.90;;;;;;5004741;28;20276;-86
2022/11/10 07:45:58;;;;;;;15.47;6.50;;;11.30;99.90;;;;;;5004724;28;20304;-85
2022/11/10 07:48:25;;;;;;;13.97;5.80;;;11.30;99.90;;;;;;5008750;28;20617;-85
2022/11/10 07:50:52;;;;;;;15.13;6.60;;;11.30;99.90;;;;;;5007533;28;20212;-85
2022/11/10 07:53:20;;;;;;;16.53;6.37;;;11.30;99.90;;;;;;5007243;28;20269;-85
2022/11/10 07:55:47;;;;;;;13.67;6.30;;;11.30;99.90;;;;;;5006346;28;20233;-85
2022/11/10 07:58:16;;;;;;;12.33;6.27;;;11.30;99.90;;;;;;5008120;28;20289;-85
2022/11/10 08:00:45;;;;;;;14.30;5.93;;;11.40;99.90;;;;;;5007247;28;20324;-85
2022/11/10 08:03:14;;;;;;;16.57;6.23;;;11.40;99.90;;;;;;5007835;28;20256;-85
2022/11/10 08:05:41;;;;;;;14.00;6.33;;;11.40;99.90;;;;;;5004374;28;20277;-86
2022/11/10 08:08:08;;;;;;;15.43;6.30;;;11.40;99.90;;;;;;4992257;28;20252;-86
2022/11/10 08:10:35;;;;;;;16.13;6.50;;;11.60;99.90;;;;;;5002117;28;20284;-85
2022/11/10 08:13:04;;;;;;;14.30;6.50;;;11.70;99.90;;;;;;5004872;28;20228;-85
2022/11/10 08:15:33;;;;;;;16.43;6.87;;;11.80;99.90;;;;;;5003340;28;20201;-86
2022/11/10 08:18:01;;;;;;;15.70;6.23;;;11.80;99.90;;;;;;5005876;28;20224;-86
2022/11/10 08:20:28;;;;;;;14.33;6.17;;;11.80;99.90;;;;;;5004378;28;20224;-85
2022/11/10 08:23:00;;;;;;;14.53;5.93;;;11.90;99.90;;;;;;5005504;28;20225;-85
2022/11/10 08:25:27;;;;;;;16.03;6.33;;;12.00;99.90;;;;;;5006411;28;20269;-86
2022/11/10 08:27:59;;;;;;;13.27;6.20;;;12.10;99.90;;;;;;5003438;28;20288;-85
2022/11/10 08:30:26;;;;;;;14.63;5.63;;;12.20;99.90;;;;;;5005135;28;20205;-86
2022/11/10 08:32:55;;;;;;;12.20;5.47;;;12.30;99.90;;;;;;5007368;28;20299;-85
2022/11/10 08:35:24;;;;;;;11.67;4.70;;;12.50;99.90;;;;;;5007104;28;20219;-85
2022/11/10 08:37:51;;;;;;;14.13;4.93;;;12.80;99.90;;;;;;5007791;28;20312;-85
2022/11/10 08:40:19;;;;;;;9.77;4.40;;;12.80;99.90;;;;;;5008306;28;20288;-85
2022/11/10 08:42:46;;;;;;;10.43;4.40;;;12.80;99.90;;;;;;5008510;28;20209;-86
2022/11/10 08:45:13;;;;;;;13.43;5.33;;;12.80;99.90;;;;;;5009882;28;20224;-85
2022/11/10 08:47:40;;;;;;;13.40;4.70;;;12.80;99.90;;;;;;5008536;28;20296;-85
2022/11/10 08:50:08;;;;;;;12.70;5.43;;;12.70;99.90;;;;;;5007311;28;20229;-85
2022/11/10 08:52:36;;;;;;;13.83;6.23;;;12.70;99.90;;;;;;5008625;28;20244;-85
2022/11/10 08:55:04;;;;;;;10.73;5.10;;;12.80;99.90;;;;;;5009008;28;20201;-86
2022/11/10 08:57:31;;;;;;;12.20;5.50;;;13.00;99.90;;;;;;5008220;28;20229;-86
2022/11/10 08:59:57;;;;;;;15.60;5.13;;;13.40;99.90;;;;;;5005484;28;20231;-85
2022/11/10 09:02:24;;;;;;;12.17;5.57;;;13.00;99.90;;;;;;4999545;28;20265;-85
2022/11/10 09:04:52;;;;;;;11.90;5.13;;;13.10;99.90;;;;;;5001148;28;20390;-86
2022/11/10 09:07:19;;;;;;;14.43;5.10;;;13.00;99.90;;;;;;5008352;28;20228;-86
2022/11/10 09:09:47;;;;;;;14.33;6.93;;;12.90;99.90;;;;;;5007715;28;20282;-85
2022/11/10 09:12:14;;;;;;;14.97;4.80;;;12.90;99.90;;;;;;5009126;28;20269;-85
2022/11/10 09:14:40;;;;;;;15.27;5.20;;;13.00;99.90;;;;;;5008268;28;20228;-85
2022/11/10 09:17:07;;;;;;;13.13;5.07;;;12.90;99.90;;;;;;5008026;28;20240;-86
2022/11/10 09:19:34;;;;;;;14.70;5.40;;;13.00;99.90;;;;;;5007967;28;20209;-85
2022/11/10 09:22:01;;;;;;;13.13;5.07;;;13.00;99.90;;;;;;5008498;28;20208;-86
2022/11/10 09:24:28;;;;;;;11.10;4.73;;;13.10;99.90;;;;;;5009283;28;20268;-86
2022/11/10 09:26:56;;;;;;;13.10;6.27;;;13.10;99.90;;;;;;5009125;28;20256;-85
2022/11/10 09:29:24;;;;;;;12.77;5.10;;;13.20;99.90;;;;;;5009617;28;20208;-86
2022/11/10 09:31:51;;;;;;;13.97;5.50;;;13.10;99.90;;;;;;5008230;28;20273;-86
2022/11/10 09:34:18;;;;;;;10.10;4.87;;;13.10;99.90;;;;;;4999142;28;20292;-86
2022/11/10 09:36:45;;;;;;;12.23;4.80;;;13.10;99.90;;;;;;4986414;28;20269;-85
2022/11/10 09:39:11;;;;;;;15.20;5.57;;;13.20;99.90;;;;;;4995284;28;20292;-86
2022/11/10 09:41:40;;;;;;;14.03;5.50;;;13.50;99.90;;;;;;5007067;28;20227;-86
2022/11/10 09:44:16;;;;;;;13.90;5.33;;;13.60;99.90;;;;;;5009736;28;20205;-85
2022/11/10 09:46:46;;;;;;;11.83;4.37;;;13.70;1.00;;;;;;5008588;28;20299;-85
2022/11/10 09:49:25;;;;;;;17.17;4.80;;;13.80;1.00;;;;;;5008707;28;20276;-85
2022/11/10 09:51:54;;;;;;;14.10;5.07;;;13.70;1.00;;;;;;4988408;28;20236;-86
2022/11/10 09:54:35;;;;;;;9.50;4.10;;;13.70;1.00;;;;;;4988584;28;20218;-86
2022/11/10 09:57:05;;;;;;;11.30;4.00;;;13.50;1.00;;;;;;4993290;28;20308;-85
2022/11/10 09:59:35;;;;;;;9.57;4.13;;;13.30;1.00;;;;;;4996253;28;20212;-86
2022/11/10 10:02:05;;;;;;;11.30;4.50;;;13.40;1.00;;;;;;5008149;28;20221;-85
2022/11/10 10:05:07;;;;;;;9.53;4.10;;;13.50;1.00;;;;;;5008509;28;20233;-86
2022/11/10 10:07:45;;;;;;;10.90;4.47;;;13.40;1.00;;;;;;4929115;29;20255;-86
2022/11/10 10:10:15;;;;;;;10.57;3.90;;;13.40;1.00;;;;;;4998417;28;20197;-86
2022/11/10 10:12:57;;;;;;;11.90;3.87;;;13.40;1.00;;;;;;5008118;28;20209;-86
2022/11/10 10:15:34;;;;;;;9.93;3.47;;;13.40;1.00;;;;;;5008472;28;20666;-86
2022/11/10 10:18:18;;;;;;;11.97;4.10;;;13.50;1.00;;;;;;5008591;28;20232;-85
2022/11/10 10:20:57;;;;;;;17.33;4.33;;;13.70;1.00;;;;;;5007139;28;20258;-86
2022/11/10 10:23:32;;;;;;;10.73;3.77;;;13.80;1.00;;;;;;5007561;28;20204;-86
2022/11/10 10:25:59;;;;;;;9.30;3.70;;;13.80;1.00;;;;;;5008522;28;20300;-86
2022/11/10 10:28:33;;;;;;;11.00;3.73;;;13.80;1.00;;;;;;5008071;28;20248;-86
2022/11/10 10:31:14;;;;;;;11.07;3.70;;;13.60;99.90;;;;;;5007926;28;20593;-86
2022/11/10 10:33:41;;;;;;;14.40;3.80;;;13.80;1.00;;;;;;5007247;28;20208;-86
2022/11/10 10:36:14;;;;;;;9.73;3.50;;;13.90;1.00;;;;;;5008062;28;20304;-85
2022/11/10 10:38:45;;;;;;;11.50;3.70;;;13.90;1.00;;;;;;5008356;28;20209;-86
2022/11/10 10:41:15;;;;;;;13.40;3.67;;;13.80;1.00;;;;;;5007950;28;20240;-86
2022/11/10 10:43:45;;;;;;;13.77;3.80;;;14.10;99.90;;;;;;5007443;28;20205;-86
2022/11/10 10:46:15;;;;;;;10.93;3.20;;;14.10;1.00;;;;;;5008370;28;20704;-85
2022/11/10 10:48:42;;;;;;;14.77;3.33;;;14.00;1.00;;;;;;5007689;28;20205;-86
2022/11/10 10:51:09;;;;;;;12.07;3.53;;;14.00;1.00;;;;;;5008698;28;20201;-86
2022/11/10 10:53:46;;;;;;;10.77;3.00;;;14.30;1.00;;;;;;5007955;28;20216;-86
2022/11/10 10:56:18;;;;;;;15.33;3.43;;;14.50;1.00;;;;;;5008968;28;20204;-86
2022/11/10 10:58:53;;;;;;;8.97;2.80;;;14.20;99.90;;;;;;5007572;28;20205;-86
2022/11/10 11:01:30;;;;;;;13.63;3.47;;;14.20;1.00;;;;;;5007889;28;20224;-86
2022/11/10 11:03:58;;;;;;;11.30;2.60;;;14.60;1.00;;;;;;5008475;28;20273;-85
2022/11/10 11:06:27;;;;;;;13.47;2.80;;;14.40;1.00;;;;;;5007535;28;20207;-85
2022/11/10 11:08:59;;;;;;;9.83;2.50;;;14.60;1.00;;;;;;5006920;28;20208;-85
2022/11/10 11:11:29;;;;;;;11.53;3.00;;;14.60;99.90;;;;;;5008450;28;20200;-85
2022/11/10 11:14:12;;;;;;;8.50;2.40;;;14.70;99.90;;;;;;5008856;28;20201;-86
2022/11/10 11:16:48;;;;;;;13.10;2.93;;;14.80;1.00;;;;;;5008134;28;20239;-86
2022/11/10 11:19:15;;;;;;;10.33;2.27;;;14.60;1.00;;;;;;5007980;28;20235;-86
2022/11/10 11:21:54;;;;;;;12.20;2.47;;;14.60;1.00;;;;;;5007260;28;20232;-86
2022/11/10 11:24:29;;;;;;;7.70;2.47;;;14.50;1.00;;;;;;5007310;28;20215;-86
2022/11/10 11:27:00;;;;;;;10.67;2.70;;;14.50;12.60;;;;;;5008364;28;20295;-86
2022/11/10 11:29:51;;;;;;;10.57;2.43;;;14.60;99.90;;;;;;5007947;28;20237;-86
2022/11/10 11:32:31;;;;;;;12.00;2.60;;;14.90;1.00;;;;;;4998171;28;20645;-86
2022/11/10 11:35:07;;;;;;;8.30;2.70;;;15.10;1.00;;;;;;5007401;28;20267;-86
2022/11/10 11:37:41;;;;;;;11.80;3.00;;;15.30;99.90;;;;;;5008411;28;20222;-84
2022/11/10 11:40:21;;;;;;;9.20;2.77;;;15.30;1.00;;;;;;5008121;28;20716;-85
2022/11/10 11:43:00;;;;;;;11.03;2.50;;;15.40;1.00;;;;;;5007364;28;20204;-85
2022/11/10 11:45:39;;;;;;;6.67;2.03;;;15.70;1.00;;;;;;5007105;28;20197;-85
2022/11/10 11:48:32;;;;;;;7.80;2.20;;;15.80;99.90;;;;;;5006937;28;20284;-85
2022/11/10 11:51:05;;;;;;;5.68;2.15;;;15.90;99.90;;;;;;5001582;28;20194;-88
2022/11/10 11:53:45;;;;;;;11.27;2.70;;;16.80;1.00;;;;;;5002564;28;20204;-85
2022/11/10 11:56:22;;;;;;;7.60;2.30;;;17.60;99.90;;;;;;4989466;28;20276;-85
2022/11/10 11:58:59;;;;;;;15.75;2.72;;;18.40;99.90;;;;;;4987075;28;20209;-85
2022/11/10 12:01:43;;;;;;;13.18;3.05;;;17.60;99.90;;;;;;4992573;28;20323;-85
2022/11/10 12:04:31;;;;;;;11.18;2.40;;;17.80;99.90;;;;;;5007091;28;20207;-85
2022/11/10 12:07:08;;;;;;;7.13;1.85;;;16.80;1.00;;;;;;5010198;28;20232;-84
2022/11/10 12:09:43;;;;;;;6.65;2.35;;;16.10;1.00;;;;;;5010903;28;20268;-85
2022/11/10 12:12:28;;;;;;;6.93;1.90;;;15.60;99.90;;;;;;5010357;28;20228;-85
2022/11/10 12:15:01;;;;;;;8.32;2.42;;;15.20;1.00;;;;;;5011829;28;20267;-85
2022/11/10 12:17:38;;;;;;;9.47;1.83;;;15.20;1.00;;;;;;5011862;28;20229;-85
2022/11/10 12:20:23;;;;;;;7.07;2.10;;;15.20;1.00;;;;;;5011145;28;20268;-85
2022/11/10 12:22:59;;;;;;;8.07;2.40;;;15.00;1.00;;;;;;5010166;28;20200;-85
2022/11/10 12:25:31;;;;;;;12.80;3.15;;;15.10;1.00;;;;;;5010258;28;20745;-85
2022/11/10 12:28:09;;;;;;;8.27;2.33;;;15.10;55.90;;;;;;5010689;28;20264;-85
2022/11/10 12:30:38;;;;;;;11.20;2.10;;;15.00;1.00;;;;;;5011721;28;20232;-85
2022/11/10 12:33:14;;;;;;;10.73;2.20;;;15.10;99.90;;;;;;5013018;28;20661;-85
2022/11/10 12:35:46;;;;;;;7.60;2.10;;;15.20;99.90;;;;;;5010055;28;20291;-85
2022/11/10 12:38:16;;;;;;;9.30;2.43;;;15.10;99.90;;;;;;5010455;28;20293;-85
2022/11/10 12:40:47;;;;;;;8.47;2.00;;;15.10;1.00;;;;;;5010499;28;20260;-85
2022/11/10 12:43:22;;;;;;;9.47;2.33;;;15.00;99.90;;;;;;5011846;28;20233;-85
2022/11/10 12:45:52;;;;;;;11.40;2.50;;;14.90;1.00;;;;;;5011424;28;20319;-85
2022/11/10 12:48:20;;;;;;;7.90;2.10;;;15.00;1.00;;;;;;5011826;28;20268;-85
2022/11/10 12:50:58;;;;;;;7.67;1.97;;;15.00;99.90;;;;;;5008939;28;20241;-85
2022/11/10 12:53:29;;;;;;;9.00;1.90;;;15.10;1.00;;;;;;5011339;28;20204;-84
2022/11/10 12:56:00;;;;;;;7.20;2.50;;;15.50;1.00;;;;;;5010639;28;20752;-86
2022/11/10 12:58:27;;;;;;;8.02;2.00;;;15.60;1.00;;;;;;5009695;28;20311;-85
2022/11/10 13:00:57;;;;;;;9.25;2.08;;;15.30;99.90;;;;;;5012237;28;20228;-85
2022/11/10 13:03:27;;;;;;;9.30;1.88;;;15.30;99.90;;;;;;5010016;28;20895;-85
2022/11/10 13:06:00;;;;;;;10.57;2.17;;;15.60;1.00;;;;;;5010196;28;20212;-85